Cantua Creek, CA (93608)

1:22 PM PDT on September 02, 2015 (GMT -0700)
APRSWXNET | | Change Station
CLOSE
Current Station
Personal Weather Station
Location: Tranquillity, CA
Elevation: 203 ft
Nearby Weather Stations

Elev 203 ft 36.65 °N, 120.25 °W | Updated 24 minutes ago

Clear
Clear
88 °F
Feels Like 86 °F
N
0
Wind Variable Wind from North
Gusts 2.0 mph

Today
High -- | Low -- °F
--% Chance of Precip.
Yesterday
High -- | Low -- °F
Precip. -- in
6:33 AM 7:28 PM
Waning Gibbous, 77% visible
Pressure 29.88 in
Visibility 7.0 miles
Clouds Few 23000 ft
Heat Index 86 °F
Dew Point 55 °F
Humidity 33%
Rainfall in
Snow Depth Not available.
UV 9 out of 12
Pollen 8.80 out of 12
Air Quality Not available.
Flu Activity Not available.
METAR KNLC 021956Z VRB06KT 7SM FEW230 31/09 A2988 RMK AO2 SLP118 RH/26 T03060089
Pressure 29.88 in
Visibility 7.0 miles
Clouds Few 23000 ft
Heat Index 86 °F
Dew Point 55 °F
Humidity 33%
Rainfall in
Snow Depth Not available.
UV 9 out of 12
Pollen 8.80 out of 12
Air Quality Not available.
Flu Activity Not available.
METAR KNLC 021956Z VRB06KT 7SM FEW230 31/09 A2988 RMK AO2 SLP118 RH/26 T03060089

10-Day Weather Forecast

×

Almanac

Astronomy

Sep. 02, 2015 Rise Set
Actual Time
Civil Twilight
Nautical Twilight
Astronomical Twilight
Moon
Length of Visible Light
Length of Day
Tomorrow will be .
, % of the Moon is Illuminated

Today's Extremes

State Highs State Lows

Community

WunderPhotos

Upload Photos

1,851,804 photos uploaded!

WunderBlogs® & News

Nearby

Air Quality

  Air Quality AQ Index Pollutant
Not available.

Snow Depth

Station Depth Elevation

Earthquake Activity

City Distance Mag. Time & Date
Minimum magnitude displayed is 2.5.

Coastal Water Temperatures

Place Temperature

Stations

Nearby Weather Stations

Station Location Temp. Windchill Dew Point Humidity Wind Precip. Elev Updated Type